createdAt,value
2022-11-15T00:04:48.200Z,99829.72
2022-11-15T00:09:49.469Z,99835.63
2022-11-15T00:14:50.714Z,99827.03
2022-11-15T00:19:51.986Z,99826.91
2022-11-15T00:24:53.200Z,99822.97
2022-11-15T00:29:54.480Z,99824.09
2022-11-15T00:34:55.727Z,99820.63
2022-11-15T00:39:57.163Z,99807.94
2022-11-15T00:44:58.386Z,99807.13
2022-11-15T00:49:59.642Z,99797.75
2022-11-15T00:55:00.932Z,99808.81
2022-11-15T01:00:02.273Z,99814.38
2022-11-15T01:05:04.013Z,99791.81
2022-11-15T01:10:06.267Z,99802.19
2022-11-15T01:15:08.019Z,99783.97
2022-11-15T01:20:09.915Z,99778.94
2022-11-15T01:25:11.181Z,99781.31
2022-11-15T01:30:12.784Z,99786.50
2022-11-15T01:35:14.059Z,99780.34
2022-11-15T01:40:15.712Z,99773.34
2022-11-15T01:45:17.337Z,99779.81
2022-11-15T01:50:23.171Z,99771.13
2022-11-15T01:55:28.344Z,99765.53
2022-11-15T02:00:31.699Z,99760.63
2022-11-15T02:05:33.760Z,99765.38
2022-11-15T02:10:35.016Z,99756.72
2022-11-15T02:15:51.076Z,99747.47
2022-11-15T02:21:37.769Z,99738.06
2022-11-15T02:27:17.941Z,99733.31
2022-11-15T02:32:27.011Z,99726.59
2022-11-15T02:37:40.211Z,99713.13
2022-11-15T02:43:09.014Z,99719.84
2022-11-15T02:48:11.770Z,99717.47
2022-11-15T02:53:14.771Z,99717.75
2022-11-15T02:58:36.752Z,99715.22
2022-11-15T03:03:58.436Z,99712.00
2022-11-15T03:09:19.975Z,99697.84
2022-11-15T03:14:36.574Z,99694.34
2022-11-15T03:19:56.632Z,99690.38
2022-11-15T03:25:06.350Z,99684.38
2022-11-15T03:30:09.689Z,99696.31
2022-11-15T03:35:21.079Z,99704.84
2022-11-15T03:40:28.677Z,99703.84
2022-11-15T03:46:01.410Z,99697.09
2022-11-15T03:51:04.557Z,99701.88
2022-11-15T03:56:06.048Z,99697.78
2022-11-15T04:01:07.437Z,99699.50
2022-11-15T04:06:08.740Z,99697.94
2022-11-15T04:11:10.003Z,99701.31
2022-11-15T04:16:11.320Z,99699.06
2022-11-15T04:21:31.276Z,99708.75
2022-11-15T04:26:32.612Z,99699.38
2022-11-15T04:31:34.068Z,99690.97
2022-11-15T04:36:54.067Z,99689.84
2022-11-15T04:41:55.638Z,99681.03
2022-11-15T04:46:57.276Z,99677.53
2022-11-15T04:51:58.607Z,99667.13
2022-11-15T04:56:59.894Z,99672.47
2022-11-15T05:02:01.157Z,99670.53
2022-11-15T05:07:03.075Z,99670.53
2022-11-15T05:12:04.491Z,99668.56
2022-11-15T05:17:05.744Z,99664.91
2022-11-15T05:22:07.214Z,99659.59
2022-11-15T05:27:08.487Z,99658.19
2022-11-15T05:32:10.395Z,99663.78
2022-11-15T05:37:11.652Z,99653.69
2022-11-15T05:42:14.955Z,99650.31
2022-11-15T05:47:20.500Z,99655.25
2022-11-15T05:52:25.765Z,99649.91
2022-11-15T05:57:27.064Z,99640.22
2022-11-15T06:02:28.404Z,99630.56
2022-11-15T06:07:30.739Z,99629.59
2022-11-15T06:12:32.158Z,99638.81
2022-11-15T06:17:33.469Z,99643.03
2022-11-15T06:22:34.721Z,99644.44
2022-11-15T06:27:36.133Z,99644.44
2022-11-15T06:32:37.510Z,99647.53
2022-11-15T06:37:39.133Z,99641.63
2022-11-15T06:42:40.382Z,99649.06
2022-11-15T06:47:48.589Z,99653.69
2022-11-15T06:52:50.049Z,99648.34
2022-11-15T06:57:52.789Z,99654.53
2022-11-15T07:02:54.138Z,99643.31
2022-11-15T07:07:57.361Z,99657.31
2022-11-15T07:12:58.583Z,99652.38
2022-11-15T07:18:02.692Z,99665.72
2022-11-15T07:23:06.021Z,99667.41
2022-11-15T07:28:07.400Z,99664.31
2022-11-15T07:33:08.835Z,99666.50
2022-11-15T07:38:10.124Z,99672.13
2022-11-15T07:43:11.459Z,99661.41
2022-11-15T07:48:12.813Z,99656.34
2022-11-15T07:53:14.098Z,99655.50
2022-11-15T07:58:15.838Z,99654.38
2022-11-15T08:03:18.258Z,99657.59
2022-11-15T08:08:19.635Z,99653.25
2022-11-15T08:13:22.040Z,99656.44
2022-11-15T08:18:23.304Z,99661.63
2022-11-15T08:23:24.564Z,99652.50
2022-11-15T08:28:25.884Z,99660.75
2022-11-15T08:33:27.445Z,99645.28
2022-11-15T08:38:32.385Z,99655.75
2022-11-15T08:43:34.796Z,99657.69
2022-11-15T08:48:36.270Z,99662.88
2022-11-15T08:53:37.652Z,99650.06
2022-11-15T08:58:39.412Z,99644.28
2022-11-15T09:03:41.285Z,99637.50
2022-11-15T09:08:50.046Z,99648.13
2022-11-15T09:13:51.356Z,99643.56
2022-11-15T09:18:54.710Z,99643.47
2022-11-15T09:23:56.443Z,99637.91
2022-11-15T09:28:57.696Z,99631.81
2022-11-15T09:33:59.182Z,99630.19
2022-11-15T09:39:01.002Z,99628.94
2022-11-15T09:44:05.226Z,99633.56
2022-11-15T09:49:09.977Z,99628.97
2022-11-15T09:54:53.522Z,99622.97
2022-11-15T10:00:43.939Z,99617.84
2022-11-15T10:05:39.439Z,99603.25
2022-11-15T10:10:45.329Z,99602.34
2022-11-15T10:15:49.221Z,99595.81
2022-11-15T10:20:52.835Z,99587.50
2022-11-15T10:25:56.761Z,99567.19
2022-11-15T10:31:00.107Z,99563.69
2022-11-15T10:36:10.686Z,99569.75
2022-11-15T10:41:12.884Z,99553.69
2022-11-15T10:51:57.293Z,99549.56
2022-11-15T10:57:01.673Z,99553.66
2022-11-15T11:02:03.139Z,99546.56
2022-11-15T11:07:22.105Z,99531.66
2022-11-15T11:12:30.958Z,99521.00
2022-11-15T11:18:10.037Z,99498.56
2022-11-15T11:23:17.193Z,99512.78
2022-11-15T11:28:36.210Z,99495.41
2022-11-15T11:34:14.609Z,99489.69
2022-11-15T11:39:46.029Z,99482.19
2022-11-15T11:45:06.003Z,99464.63
2022-11-15T11:50:20.829Z,99469.44
2022-11-15T11:55:46.542Z,99460.25
2022-11-15T12:00:52.870Z,99464.91
2022-11-15T12:05:58.469Z,99457.88
2022-11-15T12:11:20.924Z,99442.59
2022-11-15T12:16:27.155Z,99432.34
2022-11-15T12:21:52.938Z,99435.78
2022-11-15T12:27:14.763Z,99418.00
2022-11-15T12:32:27.585Z,99413.94
2022-11-15T12:37:49.253Z,99396.50
2022-11-15T12:43:13.500Z,99391.88
2022-11-15T12:48:17.786Z,99399.44
2022-11-15T12:53:28.406Z,99405.22
2022-11-15T12:58:57.142Z,99390.41
2022-11-15T13:04:20.320Z,99385.91
2022-11-15T13:09:37.030Z,99377.72
2022-11-15T13:14:38.349Z,99366.63
2022-11-15T13:19:39.624Z,99366.03
2022-11-15T13:24:40.916Z,99365.22
2022-11-15T13:29:44.500Z,99365.38
2022-11-15T13:34:52.180Z,99350.94
2022-11-15T13:39:53.902Z,99338.53
2022-11-15T13:44:57.938Z,99336.34
2022-11-15T13:50:00.164Z,99330.03
2022-11-15T13:55:09.331Z,99332.22
2022-11-15T14:00:45.842Z,99320.19
2022-11-15T14:06:04.610Z,99317.50
2022-11-15T14:11:20.587Z,99309.63
2022-11-15T14:16:33.118Z,99301.44
2022-11-15T14:21:34.554Z,99297.81
2022-11-15T14:26:35.857Z,99296.84
2022-11-15T14:31:42.569Z,99285.78
2022-11-15T14:36:45.053Z,99279.13
2022-11-15T14:41:46.317Z,99278.63
2022-11-15T14:46:49.004Z,99264.41
2022-11-15T14:51:50.288Z,99251.38
2022-11-15T14:56:51.540Z,99249.69
2022-11-15T15:01:52.881Z,99247.38
2022-11-15T15:06:54.198Z,99233.34
2022-11-15T15:11:55.665Z,99218.94
2022-11-15T15:16:56.913Z,99213.06
2022-11-15T15:21:58.175Z,99194.72
2022-11-15T15:26:59.440Z,99183.56
2022-11-15T15:32:00.772Z,99190.63
2022-11-15T15:37:26.208Z,99178.09
2022-11-15T15:42:27.485Z,99174.44
2022-11-15T15:47:28.835Z,99175.59
2022-11-15T15:52:30.113Z,99180.81
2022-11-15T15:57:31.361Z,99154.41
2022-11-15T16:02:36.313Z,99149.88
2022-11-15T16:07:44.044Z,99154.41
2022-11-15T16:12:45.395Z,99141.03
2022-11-15T16:17:57.756Z,99139.53
2022-11-15T16:23:04.405Z,99139.53
2022-11-15T16:28:29.877Z,99141.34
2022-11-15T16:33:31.946Z,99138.03
2022-11-15T16:38:34.449Z,99133.66
2022-11-15T16:43:35.991Z,99134.53
2022-11-15T16:48:37.388Z,99127.19
2022-11-15T16:53:38.783Z,99126.84
2022-11-15T16:58:40.031Z,99127.22
2022-11-15T17:03:41.282Z,99111.03
2022-11-15T17:08:42.688Z,99104.16
2022-11-15T17:13:44.411Z,99108.66
2022-11-15T17:18:50.440Z,99104.13
2022-11-15T17:23:51.814Z,99098.66
2022-11-15T17:28:57.125Z,99089.13
2022-11-15T17:33:58.529Z,99090.81
2022-11-15T17:39:00.320Z,99079.13
2022-11-15T17:44:03.361Z,99077.13
2022-11-15T17:49:04.732Z,99060.75
2022-11-15T17:54:06.229Z,99067.78
2022-11-15T17:59:13.817Z,99060.91
2022-11-15T18:04:17.528Z,99059.75
2022-11-15T18:09:19.295Z,99047.88
2022-11-15T18:14:20.837Z,99050.72
2022-11-15T18:19:22.248Z,99040.03
2022-11-15T18:24:24.064Z,99036.00
2022-11-15T18:29:25.653Z,99027.16
2022-11-15T18:34:33.498Z,99013.63
2022-11-15T18:39:35.110Z,99032.31
2022-11-15T18:44:36.506Z,99020.13
2022-11-15T18:49:37.739Z,99024.00
2022-11-15T18:54:38.996Z,99018.97
2022-11-15T18:59:40.267Z,99026.16
2022-11-15T19:04:41.619Z,99007.78
2022-11-15T19:09:42.929Z,99002.44
2022-11-15T19:14:44.199Z,98992.56
2022-11-15T19:19:45.479Z,98994.59
2022-11-15T19:24:46.777Z,98993.28
2022-11-15T19:29:48.048Z,98992.44
2022-11-15T19:34:49.297Z,98991.44
2022-11-15T19:39:50.638Z,98977.22
2022-11-15T19:44:51.939Z,98978.25
2022-11-15T19:49:53.182Z,98984.78
2022-11-15T19:54:54.480Z,98982.94
2022-11-15T19:59:55.744Z,98982.09
2022-11-15T20:04:57.036Z,98968.91
2022-11-15T20:09:58.753Z,98954.41
2022-11-15T20:15:00.041Z,98957.91
2022-11-15T20:20:01.367Z,98956.06
2022-11-15T20:25:02.841Z,98950.91
2022-11-15T20:30:04.741Z,98953.06
2022-11-15T20:35:06.078Z,98945.22
2022-11-15T20:40:07.935Z,98939.88
2022-11-15T20:45:09.549Z,98934.03
2022-11-15T20:50:40.588Z,98930.72
2022-11-15T20:55:32.217Z,98927.34
2022-11-15T21:00:33.643Z,98926.38
2022-11-15T21:05:38.421Z,98920.19
2022-11-15T21:11:01.770Z,98912.19
2022-11-15T21:16:03.726Z,98913.34
2022-11-15T21:21:05.606Z,98895.66
2022-11-15T21:26:07.401Z,98896.00
2022-11-15T21:31:09.151Z,98886.97
2022-11-15T21:36:10.448Z,98885.13
2022-11-15T21:41:11.720Z,98882.47
2022-11-15T21:46:12.995Z,98872.78
2022-11-15T21:51:14.423Z,98873.13
2022-11-15T21:56:15.898Z,98866.78
2022-11-15T22:01:36.186Z,98867.13
2022-11-15T22:06:37.675Z,98865.44
2022-11-15T22:11:39.039Z,98856.63
2022-11-15T22:16:40.391Z,98864.16
2022-11-15T22:21:43.136Z,98848.13
2022-11-15T22:26:45.555Z,98848.44
2022-11-15T22:31:46.862Z,98840.44
2022-11-15T22:37:18.186Z,98829.91
2022-11-15T22:42:09.676Z,98834.09
2022-11-15T22:47:11.090Z,98833.63
2022-11-15T22:52:13.593Z,98833.97
2022-11-15T22:57:14.911Z,98834.78
2022-11-15T23:02:16.316Z,98820.13
2022-11-15T23:07:17.658Z,98819.13
2022-11-15T23:12:37.754Z,98812.28
2022-11-15T23:17:39.089Z,98825.81
2022-11-15T23:22:49.180Z,98812.81
2022-11-15T23:27:50.445Z,98801.16
2022-11-15T23:33:10.547Z,98809.16
2022-11-15T23:38:11.815Z,98805.53
2022-11-15T23:43:13.116Z,98804.69
2022-11-15T23:48:14.553Z,98802.53
2022-11-15T23:53:15.965Z,98796.38
2022-11-15T23:58:17.259Z,98790.06
